createdAt,value
2018-11-20T00:00:17.941Z,20.63
2018-11-20T00:03:26.197Z,21.70
2018-11-20T00:06:34.665Z,18.93
2018-11-20T00:09:42.857Z,20.50
2018-11-20T00:12:51.405Z,21.70
2018-11-20T00:15:59.597Z,20.97
2018-11-20T00:19:07.832Z,18.83
2018-11-20T00:22:16.030Z,20.50
2018-11-20T00:25:24.561Z,21.53
2018-11-20T00:28:32.851Z,21.83
2018-11-20T00:31:41.136Z,20.60
2018-11-20T00:34:49.377Z,19.43
2018-11-20T00:37:57.551Z,18.57
2018-11-20T00:41:05.819Z,20.60
2018-11-20T00:44:14.599Z,21.57
2018-11-20T00:47:22.773Z,22.80
2018-11-20T00:50:31.048Z,22.53
2018-11-20T00:53:39.711Z,21.33
2018-11-20T00:56:48.725Z,21.47
2018-11-20T00:59:57.397Z,21.83
2018-11-20T01:02:52.367Z,21.10
2018-11-20T01:06:00.712Z,22.23
2018-11-20T01:08:59.635Z,19.70
2018-11-20T01:12:07.946Z,22.33
2018-11-20T01:15:16.191Z,23.10
2018-11-20T01:18:24.552Z,19.30
2018-11-20T01:21:32.779Z,21.53
2018-11-20T01:24:41.047Z,19.63
2018-11-20T01:27:49.597Z,20.30
2018-11-20T01:30:57.915Z,23.93
2018-11-20T01:34:06.117Z,21.37
2018-11-20T01:37:14.435Z,21.73
2018-11-20T01:40:22.999Z,24.17
2018-11-20T01:43:22.297Z,25.83
2018-11-20T01:46:30.521Z,21.03
2018-11-20T01:49:38.783Z,19.83
2018-11-20T01:52:47.142Z,21.03
2018-11-20T01:55:55.395Z,22.97
2018-11-20T01:59:03.869Z,22.97
2018-11-20T02:02:12.097Z,23.33
2018-11-20T02:05:13.325Z,23.53
2018-11-20T02:08:14.445Z,20.50
2018-11-20T02:11:14.770Z,20.60
2018-11-20T02:14:21.456Z,23.70
2018-11-20T02:17:48.584Z,22.03
2018-11-20T02:20:56.830Z,21.47
2018-11-20T02:24:05.030Z,23.47
2018-11-20T02:27:13.272Z,23.33
2018-11-20T02:30:21.498Z,22.80
2018-11-20T02:33:30.109Z,19.70
2018-11-20T02:36:38.422Z,20.50
2018-11-20T02:39:46.696Z,21.03
2018-11-20T02:42:55.161Z,24.43
2018-11-20T02:46:03.409Z,22.13
2018-11-20T02:49:11.852Z,20.03
2018-11-20T02:52:20.153Z,20.60
2018-11-20T02:55:28.558Z,21.57
2018-11-20T02:58:36.776Z,21.47
2018-11-20T03:01:45.133Z,20.63
2018-11-20T03:04:45.198Z,23.60
2018-11-20T03:07:53.450Z,21.50
2018-11-20T03:11:01.694Z,22.77
2018-11-20T03:14:04.861Z,21.23
2018-11-20T03:17:13.092Z,19.55
2018-11-20T03:20:21.273Z,21.53
2018-11-20T03:23:29.525Z,23.83
2018-11-20T03:26:37.978Z,19.97
2018-11-20T03:29:51.190Z,22.23
2018-11-20T03:32:59.454Z,23.90
2018-11-20T03:36:07.685Z,22.57
2018-11-20T03:39:15.928Z,20.30
2018-11-20T03:42:24.157Z,22.00
2018-11-20T03:45:40.120Z,21.83
2018-11-20T03:48:48.347Z,22.90
2018-11-20T03:51:56.555Z,27.13
2018-11-20T03:55:04.789Z,20.60
2018-11-20T03:58:13.170Z,23.67
2018-11-20T04:01:17.524Z,23.53
2018-11-20T04:04:25.898Z,23.90
2018-11-20T04:07:34.090Z,21.60
2018-11-20T04:10:42.314Z,21.07
2018-11-20T04:13:50.638Z,23.00
2018-11-20T04:16:59.025Z,23.23
2018-11-20T04:20:07.222Z,25.73
2018-11-20T04:23:15.469Z,27.83
2018-11-20T04:26:16.758Z,23.87
2018-11-20T04:29:24.933Z,22.97
2018-11-20T04:32:33.244Z,24.60
2018-11-20T04:35:41.443Z,22.40
2018-11-20T04:38:49.690Z,21.30
2018-11-20T04:41:57.377Z,22.00
2018-11-20T04:45:05.636Z,20.83
2018-11-20T04:48:13.816Z,24.47
2018-11-20T04:51:22.033Z,21.57
2018-11-20T04:54:30.258Z,20.47
2018-11-20T04:57:38.557Z,25.17
2018-11-20T05:00:46.718Z,21.27
2018-11-20T05:03:54.952Z,21.07
2018-11-20T05:07:03.218Z,23.40
2018-11-20T05:10:11.470Z,20.70
2018-11-20T05:13:19.709Z,24.93
2018-11-20T05:16:28.003Z,20.70
2018-11-20T05:19:36.586Z,20.37
2018-11-20T05:22:44.796Z,21.60
2018-11-20T05:25:53.211Z,19.40
2018-11-20T05:29:01.419Z,18.60
2018-11-20T05:32:01.302Z,17.70
2018-11-20T05:35:09.615Z,20.17
2018-11-20T05:38:17.813Z,19.27
2018-11-20T05:41:15.381Z,18.17
2018-11-20T05:44:23.576Z,16.97
2018-11-20T05:47:31.795Z,19.13
2018-11-20T05:50:40.011Z,17.00
2018-11-20T05:53:46.271Z,17.70
2018-11-20T05:56:54.708Z,17.67
2018-11-20T06:00:02.976Z,17.87
2018-11-20T06:03:11.212Z,18.13
2018-11-20T06:06:19.613Z,16.27
2018-11-20T06:09:28.057Z,16.10
2018-11-20T06:12:35.789Z,16.57
2018-11-20T06:15:44.080Z,18.20
2018-11-20T06:18:52.330Z,16.27
2018-11-20T06:22:00.541Z,18.73
2018-11-20T06:25:08.896Z,15.53
2018-11-20T06:28:17.149Z,14.80
2018-11-20T06:31:25.529Z,16.73
2018-11-20T06:34:33.838Z,14.57
2018-11-20T06:37:42.179Z,15.60
2018-11-20T06:40:50.371Z,13.90
2018-11-20T06:43:58.800Z,15.57
2018-11-20T06:47:07.248Z,16.57
2018-11-20T06:50:15.892Z,15.53
2018-11-20T06:53:24.375Z,19.03
2018-11-20T06:56:32.589Z,16.07
2018-11-20T06:59:40.862Z,12.97
2018-11-20T07:02:49.038Z,12.60
2018-11-20T07:05:51.263Z,13.60
2018-11-20T07:08:59.453Z,13.67
2018-11-20T07:12:08.097Z,15.20
2018-11-20T07:15:08.722Z,13.33
2018-11-20T07:18:17.074Z,13.50
2018-11-20T07:21:25.331Z,14.17
2018-11-20T07:24:33.591Z,13.17
2018-11-20T07:27:42.026Z,14.03
2018-11-20T07:30:50.475Z,14.13
2018-11-20T07:33:58.849Z,13.23
2018-11-20T07:37:07.234Z,11.83
2018-11-20T07:40:15.355Z,12.17
2018-11-20T07:43:23.663Z,12.23
2018-11-20T07:46:32.116Z,13.00
2018-11-20T07:49:40.572Z,12.63
2018-11-20T07:52:48.966Z,12.73
2018-11-20T07:55:57.320Z,14.37
2018-11-20T07:59:05.533Z,11.17
2018-11-20T08:02:11.629Z,11.50
2018-11-20T08:05:19.822Z,11.63
2018-11-20T08:08:28.547Z,12.53
2018-11-20T08:11:36.888Z,11.93
2018-11-20T08:14:45.182Z,12.30
2018-11-20T08:17:53.338Z,12.57
2018-11-20T08:21:01.615Z,12.30
2018-11-20T08:24:09.826Z,12.23
2018-11-20T08:27:18.060Z,14.33
2018-11-20T08:30:27.082Z,12.40
2018-11-20T08:33:35.766Z,12.80
2018-11-20T08:36:43.916Z,12.20
2018-11-20T08:39:52.178Z,10.47
2018-11-20T08:43:00.389Z,9.63
2018-11-20T08:46:08.651Z,12.40
2018-11-20T08:49:17.087Z,10.43
2018-11-20T08:52:25.334Z,13.33
2018-11-20T08:55:33.699Z,11.80
2018-11-20T08:58:42.089Z,12.13
2018-11-20T09:01:50.332Z,11.30
2018-11-20T09:04:58.685Z,10.80
2018-11-20T09:08:06.959Z,11.20
2018-11-20T09:11:15.222Z,11.60
2018-11-20T09:14:23.603Z,13.43
2018-11-20T09:17:32.095Z,12.40
2018-11-20T09:20:40.300Z,10.90
2018-11-20T09:23:48.544Z,11.43
2018-11-20T09:26:56.759Z,10.47
2018-11-20T09:30:04.990Z,10.30
2018-11-20T09:33:13.225Z,10.20
2018-11-20T09:36:21.476Z,9.37
2018-11-20T09:39:29.756Z,11.17
2018-11-20T09:42:37.933Z,9.53
2018-11-20T09:46:05.082Z,8.13
2018-11-20T09:49:13.313Z,10.30
2018-11-20T09:52:21.739Z,10.23
2018-11-20T09:55:30.373Z,9.63
2018-11-20T09:58:36.441Z,8.93
2018-11-20T10:01:44.705Z,10.60
2018-11-20T10:04:52.888Z,10.70
2018-11-20T10:08:01.160Z,9.50
2018-11-20T10:11:09.400Z,8.90
2018-11-20T10:14:17.864Z,8.83
2018-11-20T10:17:25.880Z,10.10
2018-11-20T10:20:34.102Z,9.90
2018-11-20T10:23:42.342Z,8.37
2018-11-20T10:26:50.595Z,9.37
2018-11-20T10:29:58.821Z,8.80
2018-11-20T10:33:07.083Z,8.77
2018-11-20T10:36:15.285Z,8.97
2018-11-20T10:39:23.968Z,9.53
2018-11-20T10:42:32.610Z,9.60
2018-11-20T10:45:40.855Z,7.87
2018-11-20T10:48:41.662Z,10.13
2018-11-20T10:51:49.953Z,10.30
2018-11-20T10:54:58.267Z,8.40
2018-11-20T10:58:09.808Z,9.00
2018-11-20T11:00:57.703Z,8.47
2018-11-20T11:03:45.938Z,9.73
2018-11-20T11:06:35.547Z,9.20
2018-11-20T11:09:27.041Z,8.73
2018-11-20T11:12:17.035Z,10.30
2018-11-20T11:15:21.775Z,8.53
2018-11-20T11:18:48.034Z,9.10
2018-11-20T11:21:46.801Z,9.00
2018-11-20T11:24:39.622Z,9.03
2018-11-20T11:31:23.333Z,8.83
2018-11-20T11:34:31.729Z,9.07
2018-11-20T11:37:39.908Z,9.50
2018-11-20T11:40:48.554Z,8.70
2018-11-20T11:43:56.415Z,9.23
2018-11-20T11:47:04.635Z,9.87
2018-11-20T11:50:13.086Z,10.13
2018-11-20T11:53:21.315Z,8.53
2018-11-20T11:56:30.210Z,8.57
2018-11-20T11:59:38.419Z,8.77
2018-11-20T12:05:55.919Z,10.83
2018-11-20T12:09:02.379Z,7.90
2018-11-20T12:12:09.371Z,8.10
2018-11-20T12:15:17.540Z,8.00
2018-11-20T12:18:26.094Z,8.43
2018-11-20T12:21:34.470Z,7.57
2018-11-20T12:24:42.720Z,8.57
2018-11-20T12:27:50.991Z,6.90
2018-11-20T12:30:59.203Z,7.80
2018-11-20T12:34:00.043Z,7.53
2018-11-20T12:40:02.114Z,7.50
2018-11-20T12:43:03.372Z,7.40
2018-11-20T12:46:05.443Z,8.33
2018-11-20T12:49:07.097Z,8.00
2018-11-20T12:52:08.037Z,7.90
2018-11-20T12:55:15.191Z,8.37
2018-11-20T12:58:18.695Z,8.50
2018-11-20T13:01:26.917Z,7.90
2018-11-20T13:04:35.116Z,6.73
2018-11-20T13:07:43.723Z,8.33
2018-11-20T13:10:51.949Z,7.63
2018-11-20T13:14:00.192Z,8.60
2018-11-20T13:17:08.974Z,8.03
2018-11-20T13:20:17.562Z,8.57
2018-11-20T13:23:15.126Z,6.80
2018-11-20T13:26:23.410Z,8.00
2018-11-20T13:29:25.563Z,8.93
2018-11-20T13:32:33.741Z,7.67
2018-11-20T13:35:42.308Z,7.53
2018-11-20T13:38:52.055Z,8.03
2018-11-20T13:41:59.589Z,7.30
2018-11-20T13:45:08.506Z,8.10
2018-11-20T13:48:16.795Z,7.93
2018-11-20T13:51:25.120Z,8.57
2018-11-20T13:54:33.364Z,7.93
2018-11-20T13:57:41.568Z,7.20
2018-11-20T14:00:49.912Z,8.10
2018-11-20T14:03:58.104Z,8.60
2018-11-20T14:07:06.938Z,7.80
2018-11-20T14:10:15.177Z,8.87
2018-11-20T14:13:23.416Z,7.77
2018-11-20T14:16:31.669Z,8.40
2018-11-20T14:19:40.106Z,7.60
2018-11-20T14:22:48.426Z,8.23
2018-11-20T14:25:56.647Z,7.93
2018-11-20T14:29:04.895Z,8.40
2018-11-20T14:32:13.153Z,8.13
2018-11-20T14:35:21.575Z,8.33
2018-11-20T14:38:29.757Z,8.10
2018-11-20T14:41:38.164Z,8.90
2018-11-20T14:44:46.445Z,8.10
2018-11-20T14:47:54.838Z,10.57
2018-11-20T14:50:55.309Z,8.37
2018-11-20T14:54:01.874Z,9.17
2018-11-20T14:57:10.104Z,9.13
2018-11-20T15:00:18.329Z,12.53
2018-11-20T15:03:15.333Z,8.90
2018-11-20T15:06:23.520Z,11.53
2018-11-20T15:09:31.767Z,9.70
2018-11-20T15:12:39.999Z,8.60
2018-11-20T15:15:48.282Z,9.37
2018-11-20T15:18:56.499Z,9.20
2018-11-20T15:22:04.882Z,9.70
2018-11-20T15:25:13.124Z,10.20
2018-11-20T15:28:21.449Z,11.03
2018-11-20T15:31:28.148Z,10.30
2018-11-20T15:34:23.528Z,10.37
2018-11-20T15:41:37.570Z,12.10
2018-11-20T15:44:46.682Z,11.73
2018-11-20T15:47:54.869Z,15.33
2018-11-20T15:51:03.130Z,15.00
2018-11-20T15:57:31.859Z,16.77
2018-11-20T16:00:40.133Z,14.10
2018-11-20T16:03:48.370Z,22.47
2018-11-20T16:07:01.675Z,23.47
2018-11-20T16:10:04.861Z,19.20
2018-11-20T16:13:13.080Z,19.47
2018-11-20T16:16:21.307Z,16.80
2018-11-20T16:19:29.533Z,14.83
2018-11-20T16:22:37.796Z,14.80
2018-11-20T16:25:41.594Z,15.00
2018-11-20T16:28:49.803Z,18.07
2018-11-20T16:31:58.190Z,17.93
2018-11-20T16:35:06.364Z,17.40
2018-11-20T16:38:14.652Z,18.33
2018-11-20T16:41:22.874Z,17.87
2018-11-20T16:44:31.117Z,17.63
2018-11-20T16:47:39.534Z,16.07
2018-11-20T16:50:47.765Z,14.90
2018-11-20T16:53:56.043Z,13.90
2018-11-20T16:57:04.231Z,14.60
2018-11-20T17:00:12.480Z,15.53
2018-11-20T17:03:20.738Z,16.37
2018-11-20T17:06:29.006Z,17.63
2018-11-20T17:09:37.225Z,17.13
2018-11-20T17:12:46.283Z,18.57
2018-11-20T17:15:54.686Z,23.83
2018-11-20T17:19:02.945Z,26.30
2018-11-20T17:22:11.283Z,21.37
2018-11-20T17:25:09.619Z,19.63
2018-11-20T17:28:17.824Z,19.30
2018-11-20T17:31:26.075Z,17.60
2018-11-20T17:34:34.337Z,21.33
2018-11-20T17:37:42.566Z,21.60
2018-11-20T17:40:50.788Z,25.73
2018-11-20T17:43:59.016Z,21.13
2018-11-20T17:47:07.265Z,20.87
2018-11-20T17:50:15.534Z,20.57
2018-11-20T17:53:24.031Z,15.30
2018-11-20T17:56:32.303Z,13.30
2018-11-20T17:59:40.570Z,14.60
2018-11-20T18:02:48.799Z,16.90
2018-11-20T18:05:57.151Z,18.87
2018-11-20T18:09:05.573Z,19.90
2018-11-20T18:12:13.779Z,21.20
2018-11-20T18:15:22.011Z,19.63
2018-11-20T18:18:30.451Z,18.83
2018-11-20T18:21:38.810Z,20.57
2018-11-20T18:24:47.071Z,24.10
2018-11-20T18:27:55.285Z,29.60
2018-11-20T18:34:32.534Z,33.33
2018-11-20T18:37:40.975Z,26.70
2018-11-20T18:40:49.223Z,22.70
2018-11-20T18:43:57.787Z,25.33
2018-11-20T18:47:06.018Z,18.47
2018-11-20T18:50:14.636Z,19.23
2018-11-20T18:53:22.952Z,21.73
2018-11-20T18:56:31.227Z,19.20
2018-11-20T18:59:39.477Z,15.80
2018-11-20T19:02:47.683Z,13.97
2018-11-20T19:05:55.965Z,11.33
2018-11-20T19:09:04.204Z,11.23
2018-11-20T19:12:12.423Z,13.13
2018-11-20T19:15:20.765Z,12.90
2018-11-20T19:18:29.230Z,13.73
2018-11-20T19:21:37.769Z,12.93
2018-11-20T19:24:46.037Z,12.83
2018-11-20T19:27:54.238Z,12.63
2018-11-20T19:31:02.400Z,13.77
2018-11-20T19:34:10.701Z,16.70
2018-11-20T19:37:25.100Z,15.77
2018-11-20T19:40:27.717Z,15.73
2018-11-20T19:43:36.030Z,16.23
2018-11-20T19:46:44.328Z,14.03
2018-11-20T19:49:52.606Z,14.47
2018-11-20T19:53:01.400Z,15.00
2018-11-20T19:56:09.776Z,16.77
2018-11-20T19:59:18.193Z,17.23
2018-11-20T20:02:26.737Z,19.13
2018-11-20T20:05:35.506Z,18.95
2018-11-20T20:08:43.850Z,17.60
2018-11-20T20:11:52.216Z,16.57
2018-11-20T20:15:00.644Z,15.72
2018-11-20T20:18:09.066Z,19.83
2018-11-20T20:21:17.412Z,16.80
2018-11-20T20:27:51.455Z,18.43
2018-11-20T20:30:59.791Z,19.70
2018-11-20T20:34:08.065Z,18.43
2018-11-20T20:37:16.279Z,17.67
2018-11-20T20:40:25.056Z,14.80
2018-11-20T20:43:33.328Z,17.30
2018-11-20T20:46:41.560Z,16.32
2018-11-20T20:49:50.364Z,14.77
2018-11-20T20:52:58.599Z,13.88
2018-11-20T20:56:04.291Z,16.00
2018-11-20T20:59:12.844Z,13.43
2018-11-20T21:02:21.069Z,13.33
2018-11-20T21:05:31.173Z,14.67
2018-11-20T21:08:39.718Z,16.23
2018-11-20T21:11:47.669Z,14.83
2018-11-20T21:14:55.890Z,14.80
2018-11-20T21:18:04.132Z,13.97
2018-11-20T21:21:15.636Z,13.87
2018-11-20T21:24:21.133Z,15.00
2018-11-20T21:27:29.537Z,13.43
2018-11-20T21:30:43.174Z,13.27
2018-11-20T21:33:45.986Z,13.57
2018-11-20T21:36:54.264Z,13.90
2018-11-20T21:40:02.613Z,13.57
2018-11-20T21:43:10.804Z,13.50
2018-11-20T21:46:19.453Z,14.73
2018-11-20T21:49:27.694Z,15.67
2018-11-20T21:52:35.944Z,12.70
2018-11-20T21:55:44.395Z,13.60
2018-11-20T21:58:52.661Z,14.60
2018-11-20T22:02:01.188Z,13.70
2018-11-20T22:05:09.447Z,14.90
2018-11-20T22:08:17.661Z,13.00
2018-11-20T22:11:25.953Z,13.00
2018-11-20T22:14:34.165Z,15.87
2018-11-20T22:17:42.429Z,13.20
2018-11-20T22:20:50.936Z,13.63
2018-11-20T22:23:59.622Z,12.37
2018-11-20T22:27:07.801Z,12.77
2018-11-20T22:30:16.070Z,12.75
2018-11-20T22:33:24.495Z,12.50
2018-11-20T22:36:32.864Z,11.10
2018-11-20T22:39:41.136Z,11.87
2018-11-20T22:42:48.322Z,11.83
2018-11-20T22:45:56.614Z,13.57
2018-11-20T22:49:04.824Z,11.60
2018-11-20T22:52:13.492Z,11.75
2018-11-20T22:55:22.076Z,11.13
2018-11-20T22:58:30.418Z,10.70
2018-11-20T23:01:24.639Z,11.85
2018-11-20T23:04:14.520Z,11.50
2018-11-20T23:14:25.624Z,12.00
2018-11-20T23:17:15.198Z,10.35
2018-11-20T23:20:04.714Z,10.17
2018-11-20T23:22:54.438Z,10.53
2018-11-20T23:25:44.122Z,10.17
2018-11-20T23:28:33.934Z,11.40
2018-11-20T23:31:23.542Z,9.03
2018-11-20T23:34:13.091Z,10.20
2018-11-20T23:37:02.696Z,11.60
2018-11-20T23:39:52.313Z,10.70
2018-11-20T23:42:42.063Z,10.55
2018-11-20T23:45:31.676Z,9.73
2018-11-20T23:48:13.836Z,9.80
2018-11-20T23:50:56.303Z,9.50
2018-11-20T23:53:38.240Z,9.10
2018-11-20T23:56:19.926Z,9.10
2018-11-20T23:59:02.021Z,8.63
